sensor_id;sensor_type;location;lat;lon;timestamp;pressure;altitude;pressure_sealevel;temperature;humidity
23223;BME280;11780;13.904;100.620;2023-02-04T14:38:57;101094.13;;;29.69;70.82
23223;BME280;11780;13.904;100.620;2023-02-04T14:41:27;101087.50;;;29.70;70.90
23223;BME280;11780;13.904;100.620;2023-02-04T14:43:59;101091.88;;;29.71;70.91
23223;BME280;11780;13.904;100.620;2023-02-04T14:46:31;101109.47;;;29.75;70.86
23223;BME280;11780;13.904;100.620;2023-02-04T14:49:02;101103.84;;;29.81;70.68
23223;BME280;11780;13.904;100.620;2023-02-04T14:51:32;101100.44;;;29.84;70.56
23223;BME280;11780;13.904;100.620;2023-02-04T14:54:02;101104.31;;;29.83;70.29
23223;BME280;11780;13.904;100.620;2023-02-04T14:56:34;101109.22;;;29.86;70.26
23223;BME280;11780;13.904;100.620;2023-02-04T14:59:05;101111.91;;;29.91;70.03
23223;BME280;11780;13.904;100.620;2023-02-04T15:01:35;101108.63;;;29.89;70.25
23223;BME280;11780;13.904;100.620;2023-02-04T15:04:05;101113.34;;;29.88;70.39
23223;BME280;11780;13.904;100.620;2023-02-04T15:06:38;101109.22;;;29.86;70.41
23223;BME280;11780;13.904;100.620;2023-02-04T15:09:08;101102.59;;;29.87;70.06
23223;BME280;11780;13.904;100.620;2023-02-04T15:11:39;101104.75;;;29.90;70.17
23223;BME280;11780;13.904;100.620;2023-02-04T15:14:09;101105.53;;;29.90;70.22
23223;BME280;11780;13.904;100.620;2023-02-04T15:16:42;101108.00;;;29.92;69.98
23223;BME280;11780;13.904;100.620;2023-02-04T15:19:19;101101.38;;;29.93;69.77
23223;BME280;11780;13.904;100.620;2023-02-04T15:21:52;101108.44;;;29.99;69.92
23223;BME280;11780;13.904;100.620;2023-02-04T15:24:22;101109.25;;;30.00;69.86
23223;BME280;11780;13.904;100.620;2023-02-04T15:26:55;101109.44;;;30.03;69.66
23223;BME280;11780;13.904;100.620;2023-02-04T15:29:25;101104.44;;;30.05;69.70
23223;BME280;11780;13.904;100.620;2023-02-04T15:31:56;101109.97;;;30.05;69.71
23223;BME280;11780;13.904;100.620;2023-02-04T15:34:26;101097.19;;;30.10;69.85
23223;BME280;11780;13.904;100.620;2023-02-04T15:36:59;101105.97;;;30.12;69.67
23223;BME280;11780;13.904;100.620;2023-02-04T15:39:38;101105.47;;;30.10;69.38
23223;BME280;11780;13.904;100.620;2023-02-04T15:42:09;101108.59;;;30.17;69.40
23223;BME280;11780;13.904;100.620;2023-02-04T15:44:39;101094.94;;;30.12;69.59
23223;BME280;11780;13.904;100.620;2023-02-04T15:47:36;101096.56;;;30.13;69.36
23223;BME280;11780;13.904;100.620;2023-02-04T15:50:08;101081.44;;;30.10;69.45
23223;BME280;11780;13.904;100.620;2023-02-04T15:52:41;101076.44;;;30.12;69.63
23223;BME280;11780;13.904;100.620;2023-02-04T15:55:11;101080.03;;;30.13;69.71
23223;BME280;11780;13.904;100.620;2023-02-04T15:57:41;101075.91;;;30.10;69.72
23223;BME280;11780;13.904;100.620;2023-02-04T16:00:11;101080.03;;;30.13;69.61
23223;BME280;11780;13.904;100.620;2023-02-04T16:02:44;101076.44;;;30.12;69.38
23223;BME280;11780;13.904;100.620;2023-02-04T16:05:14;101074.28;;;30.09;69.53
23223;BME280;11780;13.904;100.620;2023-02-04T16:07:45;101075.72;;;30.06;69.42
23223;BME280;11780;13.904;100.620;2023-02-04T16:10:16;101072.66;;;30.08;69.55
23223;BME280;11780;13.904;100.620;2023-02-04T16:12:46;101070.53;;;30.05;69.24
23223;BME280;11780;13.904;100.620;2023-02-04T16:15:17;101069.91;;;30.08;69.48
23223;BME280;11780;13.904;100.620;2023-02-04T16:17:47;101073.28;;;30.05;69.25
23223;BME280;11780;13.904;100.620;2023-02-04T16:20:18;101066.53;;;30.11;69.44
23223;BME280;11780;13.904;100.620;2023-02-04T16:22:52;101062.09;;;30.24;69.34
23223;BME280;11780;13.904;100.620;2023-02-04T16:25:23;101049.44;;;30.23;69.11
23223;BME280;11780;13.904;100.620;2023-02-04T16:27:54;101047.91;;;30.17;69.28
23223;BME280;11780;13.904;100.620;2023-02-04T16:30:24;101047.47;;;30.23;69.28
23223;BME280;11780;13.904;100.620;2023-02-04T16:32:54;101046.66;;;30.23;69.51
23223;BME280;11780;13.904;100.620;2023-02-04T16:35:25;101042.59;;;30.20;69.60
23223;BME280;11780;13.904;100.620;2023-02-04T16:37:55;101049.53;;;30.18;69.51
23223;BME280;11780;13.904;100.620;2023-02-04T16:40:26;101044.03;;;30.18;69.71
23223;BME280;11780;13.904;100.620;2023-02-04T16:42:58;101053.94;;;30.19;69.92
23223;BME280;11780;13.904;100.620;2023-02-04T16:45:30;101049.44;;;30.23;69.60
23223;BME280;11780;13.904;100.620;2023-02-04T16:48:02;101043.72;;;30.19;69.49
23223;BME280;11780;13.904;100.620;2023-02-04T16:50:32;101047.78;;;30.22;69.70
23223;BME280;11780;13.904;100.620;2023-02-04T16:53:02;101048.75;;;30.17;69.65
23223;BME280;11780;13.904;100.620;2023-02-04T16:55:34;101051.00;;;30.15;69.53
23223;BME280;11780;13.904;100.620;2023-02-04T16:58:04;101042.38;;;30.17;69.73
23223;BME280;11780;13.904;100.620;2023-02-04T17:00:35;101042.28;;;30.22;69.57
23223;BME280;11780;13.904;100.620;2023-02-04T17:03:12;101044.03;;;30.18;69.86
23223;BME280;11780;13.904;100.620;2023-02-04T17:05:43;101042.53;;;30.12;69.80
23223;BME280;11780;13.904;100.620;2023-02-04T17:08:13;101054.38;;;30.12;69.80
23223;BME280;11780;13.904;100.620;2023-02-04T17:10:44;101049.16;;;30.11;69.93
23223;BME280;11780;13.904;100.620;2023-02-04T17:13:32;101053.84;;;30.10;70.03
23223;BME280;11780;13.904;100.620;2023-02-04T17:16:03;101046.69;;;30.09;69.59
23223;BME280;11780;13.904;100.620;2023-02-04T17:18:34;101053.16;;;30.04;69.84
23223;BME280;11780;13.904;100.620;2023-02-04T17:21:05;101058.34;;;30.06;70.39
23223;BME280;11780;13.904;100.620;2023-02-04T17:23:38;101054.47;;;30.07;69.93
23223;BME280;11780;13.904;100.620;2023-02-04T17:26:09;101049.78;;;30.07;69.82
23223;BME280;11780;13.904;100.620;2023-02-04T17:28:39;101050.91;;;30.06;70.11
23223;BME280;11780;13.904;100.620;2023-02-04T17:31:09;101059.69;;;30.08;69.83
23223;BME280;11780;13.904;100.620;2023-02-04T17:33:40;101054.28;;;30.03;69.90
23223;BME280;11780;13.904;100.620;2023-02-04T17:36:11;101066.34;;;30.07;70.12
23223;BME280;11780;13.904;100.620;2023-02-04T17:38:44;101056.75;;;30.05;69.85
23223;BME280;11780;13.904;100.620;2023-02-04T17:41:14;101060.91;;;30.02;69.93
23223;BME280;11780;13.904;100.620;2023-02-04T17:43:44;101055.91;;;30.04;69.79
23223;BME280;11780;13.904;100.620;2023-02-04T17:46:14;101047.44;;;30.01;70.00
23223;BME280;11780;13.904;100.620;2023-02-04T17:48:44;101046.00;;;30.03;69.91
23223;BME280;11780;13.904;100.620;2023-02-04T17:51:18;101046.00;;;30.03;69.58
23223;BME280;11780;13.904;100.620;2023-02-04T17:53:48;101050.41;;;30.04;69.70
23223;BME280;11780;13.904;100.620;2023-02-04T17:56:19;101047.13;;;30.02;69.66
23223;BME280;11780;13.904;100.620;2023-02-04T17:58:53;101046.31;;;30.02;69.83
23223;BME280;11780;13.904;100.620;2023-02-04T18:01:24;101039.69;;;30.03;69.41
23223;BME280;11780;13.904;100.620;2023-02-04T18:03:56;101046.00;;;30.03;69.52
23223;BME280;11780;13.904;100.620;2023-02-04T18:06:28;101037.22;;;30.01;69.42
23223;BME280;11780;13.904;100.620;2023-02-04T18:08:59;101041.63;;;30.02;69.20
23223;BME280;11780;13.904;100.620;2023-02-04T18:11:38;101039.19;;;30.01;69.48
23223;BME280;11780;13.904;100.620;2023-02-04T18:14:19;101046.09;;;29.98;69.56
23223;BME280;11780;13.904;100.620;2023-02-04T18:16:56;101037.22;;;30.01;69.61
23223;BME280;11780;13.904;100.620;2023-02-04T18:19:29;101026.31;;;29.96;69.68
23223;BME280;11780;13.904;100.620;2023-02-04T18:22:00;101032.97;;;29.95;69.56
23223;BME280;11780;13.904;100.620;2023-02-04T18:24:35;101031.00;;;29.96;69.41
23223;BME280;11780;13.904;100.620;2023-02-04T18:27:22;101037.94;;;29.93;69.54
23223;BME280;11780;13.904;100.620;2023-02-04T18:29:53;101024.69;;;29.95;69.61
23223;BME280;11780;13.904;100.620;2023-02-04T18:32:31;101028.31;;;29.90;69.74
23223;BME280;11780;13.904;100.620;2023-02-04T18:40:58;101027.19;;;29.91;70.15
23223;BME280;11780;13.904;100.620;2023-02-04T18:43:35;101020.06;;;29.90;70.05
23223;BME280;11780;13.904;100.620;2023-02-04T18:46:21;101008.72;;;29.92;69.63
23223;BME280;11780;13.904;100.620;2023-02-04T18:51:36;101017.28;;;29.90;69.83
23223;BME280;11780;13.904;100.620;2023-02-04T18:54:24;101005.97;;;29.92;69.54
23223;BME280;11780;13.904;100.620;2023-02-04T18:59:46;101014.75;;;29.94;69.18
23223;BME280;11780;13.904;100.620;2023-02-04T19:04:52;100998.00;;;29.90;69.26
23223;BME280;11780;13.904;100.620;2023-02-04T19:07:39;101006.47;;;29.94;69.00
23223;BME280;11780;13.904;100.620;2023-02-04T19:10:29;100998.50;;;29.92;68.65
23223;BME280;11780;13.904;100.620;2023-02-04T19:16:21;100999.31;;;29.93;68.95
23223;BME280;11780;13.904;100.620;2023-02-04T19:18:53;100992.00;;;29.88;68.97
23223;BME280;11780;13.904;100.620;2023-02-04T19:21:26;100996.06;;;29.91;68.87
23223;BME280;11780;13.904;100.620;2023-02-04T19:27:00;100998.81;;;29.91;68.75
23223;BME280;11780;13.904;100.620;2023-02-04T19:29:40;100994.25;;;29.86;68.84
23223;BME280;11780;13.904;100.620;2023-02-04T19:32:28;100991.16;;;29.88;68.48
23223;BME280;11780;13.904;100.620;2023-02-04T19:35:15;101000.56;;;29.87;68.57
23223;BME280;11780;13.904;100.620;2023-02-04T19:40:32;100990.16;;;29.84;68.68
23223;BME280;11780;13.904;100.620;2023-02-04T19:43:21;100999.88;;;29.81;69.08
23223;BME280;11780;13.904;100.620;2023-02-04T19:45:51;100992.41;;;29.82;68.68
23223;BME280;11780;13.904;100.620;2023-02-04T19:48:34;100981.41;;;29.82;68.89
23223;BME280;11780;13.904;100.620;2023-02-04T19:51:26;100984.16;;;29.82;68.67
23223;BME280;11780;13.904;100.620;2023-02-04T19:54:09;100982.19;;;29.82;68.73
23223;BME280;11780;13.904;100.620;2023-02-04T19:56:40;100977.00;;;29.81;68.49
23223;BME280;11780;13.904;100.620;2023-02-04T19:59:27;100973.41;;;29.80;68.73
23223;BME280;11780;13.904;100.620;2023-02-04T20:04:41;100974.25;;;29.81;68.70
23223;BME280;11780;13.904;100.620;2023-02-04T20:07:22;100971.50;;;29.81;68.30
23223;BME280;11780;13.904;100.620;2023-02-04T20:10:40;100974.53;;;29.79;68.49
23223;BME280;11780;13.904;100.620;2023-02-04T20:12:58;100966.59;;;29.77;68.65
23223;BME280;11780;13.904;100.620;2023-02-04T20:15:29;100969.63;;;29.76;68.42
23223;BME280;11780;13.904;100.620;2023-02-04T20:18:11;100964.13;;;29.76;68.63
23223;BME280;11780;13.904;100.620;2023-02-04T20:20:43;100961.06;;;29.77;68.64
23223;BME280;11780;13.904;100.620;2023-02-04T20:23:31;100966.06;;;29.75;68.76
23223;BME280;11780;13.904;100.620;2023-02-04T20:26:01;100970.28;;;29.73;68.78
23223;BME280;11780;13.904;100.620;2023-02-04T20:28:38;100959.72;;;29.75;68.76
23223;BME280;11780;13.904;100.620;2023-02-04T20:31:28;100958.94;;;29.74;68.70
23223;BME280;11780;13.904;100.620;2023-02-04T20:34:15;100960.06;;;29.73;68.72
23223;BME280;11780;13.904;100.620;2023-02-04T20:36:48;100958.94;;;29.74;68.82
23223;BME280;11780;13.904;100.620;2023-02-04T20:39:38;100958.13;;;29.74;68.78
23223;BME280;11780;13.904;100.620;2023-02-04T20:42:27;100960.38;;;29.72;68.75
23223;BME280;11780;13.904;100.620;2023-02-04T20:45:10;100956.19;;;29.74;68.84
23223;BME280;11780;13.904;100.620;2023-02-04T20:47:41;100954.03;;;29.71;69.16
23223;BME280;11780;13.904;100.620;2023-02-04T20:50:36;100950.97;;;29.73;69.03
23223;BME280;11780;13.904;100.620;2023-02-04T20:53:34;100942.19;;;29.71;69.30
23223;BME280;11780;13.904;100.620;2023-02-04T20:56:24;100949.97;;;29.69;69.35
23223;BME280;11780;13.904;100.620;2023-02-04T21:01:46;100935.34;;;29.68;69.60
23223;BME280;11780;13.904;100.620;2023-02-04T21:04:34;100943.63;;;29.68;69.89
23223;BME280;11780;13.904;100.620;2023-02-04T21:07:20;100940.38;;;29.66;69.45
23223;BME280;11780;13.904;100.620;2023-02-04T21:09:51;100943.63;;;29.68;69.83
23223;BME280;11780;13.904;100.620;2023-02-04T21:12:21;100946.38;;;29.68;69.63
23223;BME280;11780;13.904;100.620;2023-02-04T21:14:54;100950.47;;;29.71;69.60
23223;BME280;11780;13.904;100.620;2023-02-04T21:17:46;100949.97;;;29.69;69.81
23223;BME280;11780;13.904;100.620;2023-02-04T21:20:17;100944.25;;;29.65;69.79
23223;BME280;11780;13.904;100.620;2023-02-04T21:22:47;100945.91;;;29.66;69.76
23223;BME280;11780;13.904;100.620;2023-02-04T21:25:29;100951.41;;;29.66;70.01
23223;BME280;11780;13.904;100.620;2023-02-04T21:28:11;100953.00;;;29.67;69.95
23223;BME280;11780;13.904;100.620;2023-02-04T21:30:42;100955.28;;;29.65;70.40
23223;BME280;11780;13.904;100.620;2023-02-04T21:33:13;100956.09;;;29.66;70.35
23223;BME280;11780;13.904;100.620;2023-02-04T21:35:43;100954.47;;;29.65;70.53
23223;BME280;11780;13.904;100.620;2023-02-04T21:38:14;100951.19;;;29.62;70.41
23223;BME280;11780;13.904;100.620;2023-02-04T21:40:43;100954.28;;;29.61;70.82
23223;BME280;11780;13.904;100.620;2023-02-04T21:43:13;100953.16;;;29.62;70.39
23223;BME280;11780;13.904;100.620;2023-02-04T21:45:56;100949.88;;;29.60;70.42
23223;BME280;11780;13.904;100.620;2023-02-04T21:48:26;100962.22;;;29.62;70.70
23223;BME280;11780;13.904;100.620;2023-02-04T21:50:56;100958.66;;;29.62;70.94
23223;BME280;11780;13.904;100.620;2023-02-04T21:53:27;100969.69;;;29.62;70.83
23223;BME280;11780;13.904;100.620;2023-02-04T21:55:57;100961.72;;;29.60;70.75
23223;BME280;11780;13.904;100.620;2023-02-04T21:58:27;100968.84;;;29.61;70.87
23223;BME280;11780;13.904;100.620;2023-02-04T22:00:57;100974.69;;;29.60;70.43
23223;BME280;11780;13.904;100.620;2023-02-04T22:03:28;100971.84;;;29.65;70.73
23223;BME280;11780;13.904;100.620;2023-02-04T22:05:59;100974.59;;;29.65;70.74
23223;BME280;11780;13.904;100.620;2023-02-04T22:08:29;100975.72;;;29.64;70.65
23223;BME280;11780;13.904;100.620;2023-02-04T22:10:59;100987.88;;;29.63;70.60
23223;BME280;11780;13.904;100.620;2023-02-04T22:13:29;100990.09;;;29.61;70.79
23223;BME280;11780;13.904;100.620;2023-02-04T22:16:17;100990.09;;;29.61;70.88
23223;BME280;11780;13.904;100.620;2023-02-04T22:18:48;100999.19;;;29.61;70.81
23223;BME280;11780;13.904;100.620;2023-02-04T22:21:18;100997.53;;;29.60;70.79
23223;BME280;11780;13.904;100.620;2023-02-04T22:23:50;101004.19;;;29.59;70.86
23223;BME280;11780;13.904;100.620;2023-02-04T22:26:21;100992.03;;;29.60;71.11
23223;BME280;11780;13.904;100.620;2023-02-04T22:28:51;100994.00;;;29.60;71.16
23223;BME280;11780;13.904;100.620;2023-02-04T22:31:23;100995.91;;;29.59;71.11
23223;BME280;11780;13.904;100.620;2023-02-04T22:33:53;100999.81;;;29.58;71.33
23223;BME280;11780;13.904;100.620;2023-02-04T22:36:23;101007.78;;;29.60;70.75
23223;BME280;11780;13.904;100.620;2023-02-04T22:38:53;101002.25;;;29.60;70.86
23223;BME280;11780;13.904;100.620;2023-02-04T22:41:23;101015.22;;;29.59;71.29
23223;BME280;11780;13.904;100.620;2023-02-04T22:43:56;101016.56;;;29.62;71.14
23223;BME280;11780;13.904;100.620;2023-02-04T22:46:25;101019.59;;;29.60;71.36
23223;BME280;11780;13.904;100.620;2023-02-04T22:48:58;101020.44;;;29.61;71.07
23223;BME280;11780;13.904;100.620;2023-02-04T22:51:27;101025.44;;;29.59;71.36
23223;BME280;11780;13.904;100.620;2023-02-04T22:53:57;101023.78;;;29.58;71.35
23223;BME280;11780;13.904;100.620;2023-02-04T22:56:29;101025.94;;;29.61;71.47
23223;BME280;11780;13.904;100.620;2023-02-04T22:59:00;101030.63;;;29.60;71.13
23223;BME280;11780;13.904;100.620;2023-02-04T23:01:30;101035.94;;;29.57;71.54
23223;BME280;11780;13.904;100.620;2023-02-04T23:04:00;101040.66;;;29.56;71.12
23223;BME280;11780;13.904;100.620;2023-02-04T23:06:30;101040.00;;;29.59;71.22
23223;BME280;11780;13.904;100.620;2023-02-04T23:09:01;101038.69;;;29.57;71.26
23223;BME280;11780;13.904;100.620;2023-02-04T23:11:32;101039.81;;;29.56;71.48
23223;BME280;11780;13.904;100.620;2023-02-04T23:14:04;101050.25;;;29.59;71.56
23223;BME280;11780;13.904;100.620;2023-02-04T23:16:36;101047.81;;;29.57;71.57
23223;BME280;11780;13.904;100.620;2023-02-04T23:19:07;101051.69;;;29.56;71.57
23223;BME280;11780;13.904;100.620;2023-02-04T23:21:37;101042.91;;;29.54;71.58
23223;BME280;11780;13.904;100.620;2023-02-04T23:24:07;101053.41;;;29.52;71.40
23223;BME280;11780;13.904;100.620;2023-02-04T23:26:37;101050.66;;;29.52;71.39
23223;BME280;11780;13.904;100.620;2023-02-04T23:29:07;101045.66;;;29.54;71.54
23223;BME280;11780;13.904;100.620;2023-02-04T23:31:37;101052.56;;;29.52;71.72
23223;BME280;11780;13.904;100.620;2023-02-04T23:34:07;101055.03;;;29.53;71.47
23223;BME280;11780;13.904;100.620;2023-02-04T23:36:37;101051.97;;;29.55;71.60
23223;BME280;11780;13.904;100.620;2023-02-04T23:39:07;101058.09;;;29.52;71.75
23223;BME280;11780;13.904;100.620;2023-02-04T23:41:37;101060.75;;;29.57;71.30
23223;BME280;11780;13.904;100.620;2023-02-04T23:44:07;101058.81;;;29.57;71.29
23223;BME280;11780;13.904;100.620;2023-02-04T23:46:38;101063.91;;;29.50;71.42
23223;BME280;11780;13.904;100.620;2023-02-04T23:49:09;101055.47;;;29.46;71.46
23223;BME280;11780;13.904;100.620;2023-02-04T23:51:39;101056.66;;;29.40;71.70
23223;BME280;11780;13.904;100.620;2023-02-04T23:54:09;101064.28;;;29.29;71.84
23223;BME280;11780;13.904;100.620;2023-02-04T23:56:39;101063.06;;;29.22;72.52
23223;BME280;11780;13.904;100.620;2023-02-04T23:59:09;101062.75;;;29.23;71.86
